createdAt,value
2023-05-14T00:00:04.108Z,13.90
2023-05-14T00:02:30.985Z,13.90
2023-05-14T00:04:57.629Z,13.80
2023-05-14T00:07:30.513Z,13.80
2023-05-14T00:09:58.340Z,13.80
2023-05-14T00:12:26.257Z,13.90
2023-05-14T00:14:53.700Z,13.90
2023-05-14T00:17:20.313Z,13.90
2023-05-14T00:19:46.874Z,13.80
2023-05-14T00:22:13.462Z,13.80
2023-05-14T00:24:40.067Z,13.80
2023-05-14T00:27:07.167Z,13.80
2023-05-14T00:29:33.823Z,13.80
2023-05-14T00:32:00.470Z,13.80
2023-05-14T00:34:27.057Z,13.80
2023-05-14T00:36:53.711Z,13.70
2023-05-14T00:39:20.328Z,13.70
2023-05-14T00:41:46.947Z,13.70
2023-05-14T00:44:13.529Z,13.70
2023-05-14T00:46:40.153Z,13.70
2023-05-14T00:49:06.963Z,13.80
2023-05-14T00:51:33.712Z,13.70
2023-05-14T00:54:00.583Z,13.80
2023-05-14T00:56:27.893Z,13.80
2023-05-14T00:58:54.532Z,13.80
2023-05-14T01:01:21.539Z,13.80
2023-05-14T01:03:48.981Z,13.80
2023-05-14T01:06:32.530Z,13.70
2023-05-14T01:09:18.628Z,13.70
2023-05-14T01:12:05.982Z,13.70
2023-05-14T01:14:56.332Z,13.70
2023-05-14T01:17:27.840Z,13.80
2023-05-14T01:19:56.516Z,13.80
2023-05-14T01:22:23.070Z,13.80
2023-05-14T01:24:49.623Z,13.80
2023-05-14T01:27:16.170Z,13.80
2023-05-14T01:29:49.750Z,13.80
2023-05-14T01:32:18.509Z,13.80
2023-05-14T01:34:47.177Z,13.80
2023-05-14T01:37:14.088Z,13.70
2023-05-14T01:39:42.256Z,13.80
2023-05-14T01:42:10.166Z,13.70
2023-05-14T01:44:36.906Z,13.70
2023-05-14T01:47:03.557Z,13.70
2023-05-14T01:49:30.418Z,13.70
2023-05-14T01:51:57.005Z,13.80
2023-05-14T01:54:23.658Z,13.70
2023-05-14T01:56:50.360Z,13.70
2023-05-14T01:59:17.498Z,13.70
2023-05-14T02:01:44.174Z,13.70
2023-05-14T02:04:10.897Z,13.70
2023-05-14T02:06:37.505Z,13.70
2023-05-14T02:09:05.063Z,13.70
2023-05-14T02:11:31.710Z,13.70
2023-05-14T02:13:58.332Z,13.60
2023-05-14T02:16:24.939Z,13.70
2023-05-14T02:18:51.547Z,13.70
2023-05-14T02:21:18.301Z,13.60
2023-05-14T02:23:44.861Z,13.70
2023-05-14T02:26:12.230Z,13.70
2023-05-14T02:28:38.799Z,13.70
2023-05-14T02:31:05.518Z,13.70
2023-05-14T02:33:32.175Z,13.70
2023-05-14T02:35:58.809Z,13.70
2023-05-14T02:38:26.456Z,13.70
2023-05-14T02:40:53.149Z,13.70
2023-05-14T02:43:19.780Z,13.70
2023-05-14T02:45:46.924Z,13.70
2023-05-14T02:48:13.559Z,13.60
2023-05-14T02:50:40.192Z,13.60
2023-05-14T02:53:07.984Z,13.60
2023-05-14T02:55:35.560Z,13.60
2023-05-14T02:58:02.460Z,13.60
2023-05-14T03:00:29.159Z,13.60
2023-05-14T03:02:56.317Z,13.60
2023-05-14T03:05:23.445Z,13.60
2023-05-14T03:07:51.703Z,13.60
2023-05-14T03:10:18.337Z,13.60
2023-05-14T03:12:45.180Z,13.70
2023-05-14T03:15:11.891Z,13.60
2023-05-14T03:17:38.449Z,13.60
2023-05-14T03:20:05.794Z,13.60
2023-05-14T03:22:32.445Z,13.60
2023-05-14T03:24:59.057Z,13.70
2023-05-14T03:27:25.778Z,13.60
2023-05-14T03:29:52.342Z,13.60
2023-05-14T03:32:19.309Z,13.60
2023-05-14T03:34:45.908Z,13.60
2023-05-14T03:37:12.498Z,13.60
2023-05-14T03:39:39.040Z,13.60
2023-05-14T03:42:05.718Z,13.60
2023-05-14T03:44:32.335Z,13.60
2023-05-14T03:46:58.938Z,13.60
2023-05-14T03:49:25.666Z,13.50
2023-05-14T03:51:52.413Z,13.50
2023-05-14T03:54:19.026Z,13.50
2023-05-14T03:56:45.906Z,13.50
2023-05-14T03:59:12.473Z,13.50
2023-05-14T04:01:39.039Z,13.50
2023-05-14T04:04:05.881Z,13.50
2023-05-14T04:06:33.563Z,13.50
2023-05-14T04:09:00.142Z,13.50
2023-05-14T04:11:26.751Z,13.40
2023-05-14T04:13:53.368Z,13.40
2023-05-14T04:16:20.052Z,13.30
2023-05-14T04:18:46.694Z,13.30
2023-05-14T04:21:13.401Z,13.30
2023-05-14T04:23:39.982Z,13.30
2023-05-14T04:26:06.661Z,13.30
2023-05-14T04:28:33.236Z,13.30
2023-05-14T04:30:59.902Z,13.30
2023-05-14T04:33:26.484Z,13.40
2023-05-14T04:35:53.418Z,13.30
2023-05-14T04:38:20.053Z,13.30
2023-05-14T04:40:46.658Z,13.40
2023-05-14T04:43:13.463Z,13.30
2023-05-14T04:45:40.947Z,13.30
2023-05-14T04:48:08.454Z,13.30
2023-05-14T04:50:35.480Z,13.30
2023-05-14T04:53:03.114Z,13.30
2023-05-14T04:55:29.858Z,13.20
2023-05-14T04:57:56.471Z,13.20
2023-05-14T05:00:23.424Z,13.20
2023-05-14T05:02:50.663Z,13.20
2023-05-14T05:05:17.316Z,13.10
2023-05-14T05:07:43.948Z,13.10
2023-05-14T05:10:10.737Z,13.00
2023-05-14T05:12:37.313Z,13.10
2023-05-14T05:15:04.919Z,13.20
2023-05-14T05:17:31.737Z,13.20
2023-05-14T05:19:58.386Z,13.20
2023-05-14T05:22:26.286Z,13.20
2023-05-14T05:24:52.900Z,13.20
2023-05-14T05:27:20.946Z,13.30
2023-05-14T05:29:47.587Z,13.30
2023-05-14T05:32:14.265Z,13.30
2023-05-14T05:34:41.461Z,13.40
2023-05-14T05:37:09.185Z,13.40
2023-05-14T05:39:35.783Z,13.50
2023-05-14T05:42:02.589Z,13.50
2023-05-14T05:44:29.242Z,13.60
2023-05-14T05:46:57.240Z,13.40
2023-05-14T05:49:24.171Z,13.50
2023-05-14T05:51:50.885Z,13.60
2023-05-14T05:54:17.588Z,13.60
2023-05-14T05:56:44.241Z,13.60
2023-05-14T05:59:10.834Z,13.60
2023-05-14T06:01:37.636Z,13.60
2023-05-14T06:04:06.168Z,13.60
2023-05-14T06:06:33.029Z,13.70
2023-05-14T06:09:01.668Z,13.70
2023-05-14T06:11:28.768Z,13.70
2023-05-14T06:13:55.382Z,13.80
2023-05-14T06:16:21.968Z,13.80
2023-05-14T06:18:48.691Z,13.90
2023-05-14T06:21:15.382Z,13.90
2023-05-14T06:23:41.944Z,13.90
2023-05-14T06:26:08.589Z,14.00
2023-05-14T06:28:35.353Z,14.00
2023-05-14T06:31:01.946Z,13.90
2023-05-14T06:33:31.426Z,14.00
2023-05-14T06:36:04.516Z,14.00
2023-05-14T06:38:31.634Z,14.10
2023-05-14T06:40:58.312Z,14.20
2023-05-14T06:43:24.977Z,14.30
2023-05-14T06:45:52.023Z,14.30
2023-05-14T06:48:19.893Z,14.40
2023-05-14T06:50:47.589Z,14.40
2023-05-14T06:53:14.367Z,14.50
2023-05-14T06:55:41.425Z,14.60
2023-05-14T06:58:08.473Z,14.60
2023-05-14T07:00:35.358Z,14.70
2023-05-14T07:03:02.027Z,14.80
2023-05-14T07:05:29.001Z,14.80
2023-05-14T07:07:55.714Z,14.70
2023-05-14T07:10:22.847Z,14.70
2023-05-14T07:12:49.883Z,14.70
2023-05-14T07:15:16.560Z,14.60
2023-05-14T07:17:43.225Z,14.50
2023-05-14T07:20:10.396Z,14.40
2023-05-14T07:22:36.998Z,14.40
2023-05-14T07:25:03.898Z,14.40
2023-05-14T07:27:30.580Z,14.30
2023-05-14T07:29:57.145Z,14.40
2023-05-14T07:32:25.065Z,14.30
2023-05-14T07:34:51.849Z,14.40
2023-05-14T07:37:18.792Z,14.40
2023-05-14T07:39:45.492Z,14.40
2023-05-14T07:42:17.130Z,14.40
2023-05-14T07:44:51.910Z,14.40
2023-05-14T07:47:19.199Z,14.40
2023-05-14T07:49:45.877Z,14.30
2023-05-14T07:52:12.540Z,14.30
2023-05-14T07:54:39.146Z,14.40
2023-05-14T07:57:05.881Z,14.40
2023-05-14T07:59:32.608Z,14.50
2023-05-14T08:01:59.256Z,14.50
2023-05-14T08:04:26.367Z,14.60
2023-05-14T08:06:53.117Z,14.70
2023-05-14T08:09:19.719Z,14.70
2023-05-14T08:11:46.345Z,14.70
2023-05-14T08:14:12.986Z,14.70
2023-05-14T08:16:39.659Z,14.80
2023-05-14T08:19:06.347Z,14.90
2023-05-14T08:21:33.047Z,15.00
2023-05-14T08:23:59.694Z,15.00
2023-05-14T08:26:26.427Z,15.00
2023-05-14T08:28:54.434Z,15.10
2023-05-14T08:31:21.012Z,15.10
2023-05-14T08:33:47.731Z,15.10
2023-05-14T08:36:14.355Z,15.00
2023-05-14T08:38:42.175Z,15.10
2023-05-14T08:41:09.188Z,15.20
2023-05-14T08:43:52.223Z,15.00
2023-05-14T08:46:23.689Z,15.10
2023-05-14T08:49:00.387Z,15.00
2023-05-14T08:51:27.724Z,15.00
2023-05-14T08:53:55.515Z,15.00
2023-05-14T08:56:23.016Z,15.10
2023-05-14T08:58:49.671Z,15.30
2023-05-14T09:01:16.927Z,15.40
2023-05-14T09:03:44.138Z,15.40
2023-05-14T09:06:12.763Z,15.50
2023-05-14T09:08:39.453Z,15.40
2023-05-14T09:11:06.674Z,15.40
2023-05-14T09:13:33.311Z,15.50
2023-05-14T09:16:00.676Z,15.60
2023-05-14T09:18:27.310Z,15.70
2023-05-14T09:20:54.153Z,15.90
2023-05-14T09:23:20.787Z,15.80
2023-05-14T09:25:48.330Z,15.70
2023-05-14T09:28:17.377Z,15.60
2023-05-14T09:30:50.292Z,15.70
2023-05-14T09:33:29.011Z,15.80
2023-05-14T09:35:59.623Z,15.80
2023-05-14T09:38:33.175Z,15.80
2023-05-14T09:41:00.813Z,15.80
2023-05-14T09:43:27.451Z,15.70
2023-05-14T09:45:54.073Z,15.80
2023-05-14T09:48:22.331Z,15.80
2023-05-14T09:50:49.178Z,15.90
2023-05-14T09:53:17.563Z,16.00
2023-05-14T09:55:45.145Z,16.10
2023-05-14T09:58:14.343Z,16.10
2023-05-14T10:00:45.161Z,16.20
2023-05-14T10:03:17.216Z,16.10
2023-05-14T10:05:48.023Z,16.10
2023-05-14T10:08:24.081Z,16.10
2023-05-14T10:10:55.835Z,16.10
2023-05-14T10:13:28.593Z,16.20
2023-05-14T10:16:09.457Z,16.10
2023-05-14T10:18:41.270Z,16.20
2023-05-14T10:21:08.655Z,16.10
2023-05-14T10:23:37.828Z,16.00
2023-05-14T10:26:05.726Z,16.00
2023-05-14T10:28:32.984Z,16.10
2023-05-14T10:31:00.777Z,16.10
2023-05-14T10:33:27.605Z,16.00
2023-05-14T10:36:04.975Z,16.10
2023-05-14T10:38:38.205Z,16.10
2023-05-14T10:41:12.780Z,16.20
2023-05-14T10:43:41.459Z,16.20
2023-05-14T10:46:09.617Z,16.20
2023-05-14T10:48:40.740Z,16.30
2023-05-14T10:51:10.168Z,16.30
2023-05-14T10:53:41.004Z,16.30
2023-05-14T10:56:12.567Z,16.30
2023-05-14T10:58:42.324Z,16.30
2023-05-14T11:01:10.865Z,16.40
2023-05-14T11:03:42.530Z,16.40
2023-05-14T11:06:11.097Z,16.40
2023-05-14T11:08:38.224Z,16.50
2023-05-14T11:11:06.002Z,16.50
2023-05-14T11:13:34.374Z,16.50
2023-05-14T11:16:08.701Z,16.60
2023-05-14T11:18:42.173Z,16.60
2023-05-14T11:21:08.981Z,16.60
2023-05-14T11:23:35.767Z,16.60
2023-05-14T11:26:02.491Z,16.50
2023-05-14T11:28:29.689Z,16.60
2023-05-14T11:30:56.413Z,16.50
2023-05-14T11:33:23.026Z,16.30
2023-05-14T11:35:49.721Z,16.20
2023-05-14T11:38:17.945Z,16.20
2023-05-14T11:40:58.716Z,16.20
2023-05-14T11:43:29.041Z,16.30
2023-05-14T11:45:56.258Z,16.20
2023-05-14T11:48:25.199Z,16.30
2023-05-14T11:50:52.766Z,16.30
2023-05-14T11:53:25.781Z,16.30
2023-05-14T11:55:57.864Z,16.30
2023-05-14T11:58:25.272Z,16.40
2023-05-14T12:00:53.510Z,16.40
2023-05-14T12:03:26.297Z,16.40
2023-05-14T12:06:00.427Z,16.40
2023-05-14T12:08:30.116Z,16.50
2023-05-14T12:10:59.038Z,16.50
2023-05-14T12:13:30.883Z,16.50
2023-05-14T12:16:00.688Z,16.60
2023-05-14T12:18:29.917Z,16.60
2023-05-14T12:21:01.646Z,16.80
2023-05-14T12:23:29.914Z,16.80
2023-05-14T12:26:03.431Z,16.90
2023-05-14T12:28:30.262Z,17.00
2023-05-14T12:30:57.608Z,17.00
2023-05-14T12:33:26.368Z,17.10
2023-05-14T12:36:07.411Z,17.10
2023-05-14T12:38:41.185Z,17.10
2023-05-14T12:41:07.900Z,17.10
2023-05-14T12:43:34.511Z,17.30
2023-05-14T12:46:01.122Z,17.30
2023-05-14T12:48:27.837Z,17.50
2023-05-14T12:50:54.418Z,17.60
2023-05-14T12:53:21.009Z,17.90
2023-05-14T12:55:47.612Z,17.90
2023-05-14T12:58:14.196Z,18.00
2023-05-14T13:00:40.925Z,17.90
2023-05-14T13:03:07.733Z,18.00
2023-05-14T13:05:34.418Z,18.00
2023-05-14T13:08:03.651Z,17.90
2023-05-14T13:10:30.466Z,18.00
2023-05-14T13:12:58.207Z,17.90
2023-05-14T13:15:25.056Z,17.80
2023-05-14T13:17:51.955Z,17.80
2023-05-14T13:20:18.683Z,17.70
2023-05-14T13:22:45.317Z,17.50
2023-05-14T13:25:11.898Z,17.40
2023-05-14T13:27:38.522Z,17.50
2023-05-14T13:30:05.640Z,17.30
2023-05-14T13:32:32.324Z,17.40
2023-05-14T13:34:59.134Z,17.50
2023-05-14T13:37:26.022Z,17.40
2023-05-14T13:39:52.648Z,17.50
2023-05-14T13:42:19.394Z,17.40
2023-05-14T13:44:45.973Z,17.30
2023-05-14T13:47:12.622Z,17.20
2023-05-14T13:49:40.223Z,17.00
2023-05-14T13:52:07.001Z,16.90
2023-05-14T13:54:33.743Z,16.80
2023-05-14T13:57:00.366Z,16.80
2023-05-14T13:59:27.736Z,16.70
2023-05-14T14:01:54.480Z,16.50
2023-05-14T14:04:22.090Z,16.30
2023-05-14T14:06:49.223Z,16.30
2023-05-14T14:09:15.806Z,16.30
2023-05-14T14:11:42.481Z,16.20
2023-05-14T14:14:09.084Z,16.20
2023-05-14T14:16:36.224Z,16.20
2023-05-14T14:19:03.027Z,16.30
2023-05-14T14:21:29.882Z,16.20
2023-05-14T14:23:56.487Z,16.10
2023-05-14T14:26:23.295Z,16.10
2023-05-14T14:28:49.862Z,16.00
2023-05-14T14:31:17.003Z,16.00
2023-05-14T14:33:43.684Z,15.90
2023-05-14T14:36:10.290Z,15.80
2023-05-14T14:38:37.420Z,15.70
2023-05-14T14:41:04.063Z,15.80
2023-05-14T14:43:30.730Z,15.80
2023-05-14T14:45:57.616Z,15.70
2023-05-14T14:48:33.886Z,15.70
2023-05-14T14:51:04.145Z,15.70
2023-05-14T14:53:31.053Z,15.80
2023-05-14T14:55:58.764Z,15.80
2023-05-14T14:58:25.995Z,15.80
2023-05-14T15:00:55.756Z,15.90
2023-05-14T15:03:23.404Z,16.00
2023-05-14T15:05:51.605Z,16.00
2023-05-14T15:08:18.339Z,16.10
2023-05-14T15:10:45.700Z,16.20
2023-05-14T15:13:12.796Z,16.20
2023-05-14T15:15:39.409Z,16.30
2023-05-14T15:18:06.195Z,16.30
2023-05-14T15:20:32.918Z,16.20
2023-05-14T15:22:59.503Z,16.10
2023-05-14T15:25:26.761Z,15.90
2023-05-14T15:27:53.597Z,16.00
2023-05-14T15:30:20.597Z,15.80
2023-05-14T15:32:47.276Z,15.80
2023-05-14T15:35:13.957Z,15.90
2023-05-14T15:37:42.581Z,15.80
2023-05-14T15:40:10.353Z,15.80
2023-05-14T15:42:38.296Z,15.80
2023-05-14T15:45:05.693Z,15.80
2023-05-14T15:47:32.480Z,15.80
2023-05-14T15:49:59.903Z,15.80
2023-05-14T15:52:26.540Z,15.70
2023-05-14T15:54:54.224Z,15.70
2023-05-14T15:57:20.758Z,15.70
2023-05-14T15:59:47.748Z,15.60
2023-05-14T16:02:15.048Z,15.50
2023-05-14T16:04:41.760Z,15.50
2023-05-14T16:07:12.096Z,15.50
2023-05-14T16:09:39.112Z,15.50
2023-05-14T16:12:06.668Z,15.50
2023-05-14T16:14:34.843Z,15.50
2023-05-14T16:17:04.356Z,15.50
2023-05-14T16:19:30.962Z,15.40
2023-05-14T16:21:57.655Z,15.40
2023-05-14T16:24:24.328Z,15.40
2023-05-14T16:26:51.391Z,15.40
2023-05-14T16:29:18.046Z,15.40
2023-05-14T16:31:44.654Z,15.40
2023-05-14T16:34:11.490Z,15.20
2023-05-14T16:36:38.138Z,15.20
2023-05-14T16:39:07.783Z,15.10
2023-05-14T16:41:35.896Z,15.10
2023-05-14T16:44:02.880Z,15.10
2023-05-14T16:46:30.503Z,15.20
2023-05-14T16:48:57.218Z,15.20
2023-05-14T16:51:23.871Z,15.30
2023-05-14T16:53:51.909Z,15.40
2023-05-14T16:56:18.960Z,15.30
2023-05-14T16:58:45.577Z,15.40
2023-05-14T17:01:12.247Z,15.40
2023-05-14T17:03:38.818Z,15.50
2023-05-14T17:06:05.718Z,15.60
2023-05-14T17:08:33.603Z,15.60
2023-05-14T17:11:00.468Z,15.50
2023-05-14T17:13:28.313Z,15.50
2023-05-14T17:15:55.256Z,15.40
2023-05-14T17:18:21.833Z,15.40
2023-05-14T17:20:48.462Z,15.30
2023-05-14T17:23:15.190Z,15.40
2023-05-14T17:25:41.780Z,15.40
2023-05-14T17:28:08.433Z,15.40
2023-05-14T17:30:35.043Z,15.40
2023-05-14T17:33:01.685Z,15.40
2023-05-14T17:35:28.504Z,15.40
2023-05-14T17:37:55.177Z,15.40
2023-05-14T17:40:21.776Z,15.40
2023-05-14T17:42:48.369Z,15.40
2023-05-14T17:45:15.457Z,15.30
2023-05-14T17:47:42.218Z,15.30
2023-05-14T17:50:09.181Z,15.40
2023-05-14T17:52:35.995Z,15.40
2023-05-14T17:55:02.650Z,15.30
2023-05-14T17:57:29.513Z,15.30
2023-05-14T17:59:56.105Z,15.30
2023-05-14T18:02:22.782Z,15.30
2023-05-14T18:04:49.409Z,15.30
2023-05-14T18:07:16.302Z,15.30
2023-05-14T18:09:43.055Z,15.20
2023-05-14T18:12:09.898Z,15.10
2023-05-14T18:14:36.573Z,15.10
2023-05-14T18:17:03.627Z,15.10
2023-05-14T18:19:30.278Z,15.10
2023-05-14T18:21:56.902Z,15.10
2023-05-14T18:24:23.514Z,15.10
2023-05-14T18:26:50.216Z,15.20
2023-05-14T18:29:16.774Z,15.10
2023-05-14T18:31:43.746Z,15.00
2023-05-14T18:34:10.328Z,14.80
2023-05-14T18:36:37.342Z,14.80
2023-05-14T18:39:03.925Z,14.70
2023-05-14T18:41:30.569Z,14.60
2023-05-14T18:43:57.951Z,14.60
2023-05-14T18:46:25.003Z,14.70
2023-05-14T18:48:51.664Z,14.70
2023-05-14T18:51:18.288Z,14.70
2023-05-14T18:53:44.880Z,14.80
2023-05-14T18:56:11.501Z,14.80
2023-05-14T18:58:38.293Z,14.70
2023-05-14T19:01:05.042Z,14.70
2023-05-14T19:03:31.840Z,14.70
2023-05-14T19:05:58.602Z,14.70
2023-05-14T19:08:25.292Z,14.70
2023-05-14T19:10:52.805Z,14.60
2023-05-14T19:13:19.426Z,14.50
2023-05-14T19:15:46.098Z,14.40
2023-05-14T19:18:13.767Z,14.30
2023-05-14T19:20:40.440Z,14.30
2023-05-14T19:23:07.017Z,14.20
2023-05-14T19:25:34.033Z,14.20
2023-05-14T19:28:03.530Z,14.20
2023-05-14T19:30:30.415Z,14.20
2023-05-14T19:32:57.134Z,14.20
2023-05-14T19:35:24.054Z,14.00
2023-05-14T19:37:50.934Z,13.90
2023-05-14T19:40:17.689Z,13.90
2023-05-14T19:42:44.331Z,13.70
2023-05-14T19:45:11.243Z,13.70
2023-05-14T19:47:38.099Z,13.70
2023-05-14T19:50:05.255Z,13.60
2023-05-14T19:52:31.854Z,13.60
2023-05-14T19:54:58.549Z,13.50
2023-05-14T19:57:26.457Z,13.50
2023-05-14T19:59:53.039Z,13.50
2023-05-14T20:02:21.586Z,13.60
2023-05-14T20:04:49.391Z,13.60
2023-05-14T20:07:16.084Z,13.60
2023-05-14T20:09:42.745Z,13.70
2023-05-14T20:12:09.717Z,13.70
2023-05-14T20:14:36.433Z,13.70
2023-05-14T20:17:03.206Z,13.60
2023-05-14T20:19:30.149Z,13.70
2023-05-14T20:21:56.845Z,13.70
2023-05-14T20:24:23.457Z,13.70
2023-05-14T20:26:50.098Z,13.60
2023-05-14T20:29:16.696Z,13.50
2023-05-14T20:31:43.311Z,13.40
2023-05-14T20:34:09.923Z,13.30
2023-05-14T20:36:37.339Z,13.30
2023-05-14T20:39:05.951Z,13.20
2023-05-14T20:41:32.609Z,13.10
2023-05-14T20:43:59.198Z,13.00
2023-05-14T20:46:25.983Z,13.10
2023-05-14T20:48:55.294Z,13.10
2023-05-14T20:51:21.996Z,13.10
2023-05-14T20:53:48.689Z,13.20
2023-05-14T20:56:15.354Z,13.20
2023-05-14T20:58:41.926Z,13.20
2023-05-14T21:01:09.352Z,13.20
2023-05-14T21:03:36.205Z,13.20
2023-05-14T21:06:03.186Z,13.10
2023-05-14T21:08:32.523Z,13.10
2023-05-14T21:10:59.259Z,13.10
2023-05-14T21:13:25.937Z,13.10
2023-05-14T21:15:52.706Z,13.00
2023-05-14T21:18:19.326Z,13.00
2023-05-14T21:20:45.981Z,13.00
2023-05-14T21:23:12.809Z,13.00
2023-05-14T21:25:39.497Z,13.00
2023-05-14T21:28:09.345Z,12.90
2023-05-14T21:30:35.937Z,12.90
2023-05-14T21:33:03.077Z,12.90
2023-05-14T21:35:29.759Z,12.80
2023-05-14T21:37:56.335Z,12.80
2023-05-14T21:40:22.923Z,12.80
2023-05-14T21:42:50.108Z,12.80
2023-05-14T21:45:16.787Z,12.80
2023-05-14T21:47:43.681Z,12.90
2023-05-14T21:50:10.730Z,12.90
2023-05-14T21:52:38.323Z,12.80
2023-05-14T21:55:05.626Z,12.90
2023-05-14T21:57:34.567Z,12.90
2023-05-14T22:00:01.653Z,12.90
2023-05-14T22:02:33.091Z,12.90
2023-05-14T22:04:59.771Z,12.90
2023-05-14T22:07:26.444Z,12.90
2023-05-14T22:09:53.020Z,12.90
2023-05-14T22:12:19.620Z,12.90
2023-05-14T22:14:46.289Z,12.90
2023-05-14T22:17:12.898Z,12.90
2023-05-14T22:19:39.483Z,12.90
2023-05-14T22:22:06.207Z,12.90
2023-05-14T22:24:32.869Z,12.90
2023-05-14T22:26:59.551Z,12.90
2023-05-14T22:29:26.203Z,12.80
2023-05-14T22:31:53.003Z,12.80
2023-05-14T22:34:19.626Z,12.80
2023-05-14T22:36:46.202Z,12.80
2023-05-14T22:39:13.661Z,12.70
2023-05-14T22:41:40.404Z,12.80
2023-05-14T22:44:06.972Z,12.70
2023-05-14T22:46:33.670Z,12.60
2023-05-14T22:49:00.356Z,12.70
2023-05-14T22:51:26.955Z,12.70
2023-05-14T22:53:54.142Z,12.70
2023-05-14T22:56:21.523Z,12.60
2023-05-14T22:58:48.290Z,12.60
2023-05-14T23:01:14.934Z,12.60
2023-05-14T23:03:41.599Z,12.50
2023-05-14T23:06:08.268Z,12.50
2023-05-14T23:08:34.885Z,12.50
2023-05-14T23:11:01.451Z,12.40
2023-05-14T23:13:28.052Z,12.40
2023-05-14T23:15:54.651Z,12.30
2023-05-14T23:18:21.340Z,12.20
2023-05-14T23:20:48.817Z,12.20
2023-05-14T23:23:15.668Z,12.10
2023-05-14T23:25:42.410Z,12.00
2023-05-14T23:28:09.568Z,12.00
2023-05-14T23:30:36.195Z,12.00
2023-05-14T23:33:02.932Z,12.00
2023-05-14T23:35:29.661Z,12.00
2023-05-14T23:37:56.248Z,12.00
2023-05-14T23:40:22.862Z,11.90
2023-05-14T23:42:49.522Z,11.90
2023-05-14T23:45:16.289Z,12.00
2023-05-14T23:47:43.067Z,12.00
2023-05-14T23:50:09.813Z,12.00
2023-05-14T23:52:36.369Z,12.00
2023-05-14T23:55:04.165Z,11.90
2023-05-14T23:57:31.056Z,11.70
2023-05-14T23:59:57.785Z,11.70
